Time;durP1;ratioP1;P1;durP2;ratioP2;P2;SDS_P1;SDS_P2;PMS_P1;PMS_P2;Temp;Humidity;BMP_temperature;BMP_pressure;BME280_temperature;BME280_humidity;BME280_pressure;Samples;Min_cycle;Max_cycle;Signal;HPM_P1;HPM_P2
2021/10/24 00:00:10;;;;;;;0.10;0.10;;;;;;;7.61;100.00;102209.03;5017581;28;20036;-70
2021/10/24 00:02:39;;;;;;;0.10;0.10;;;;;;;7.57;100.00;102203.47;5026510;28;20433;-69
2021/10/24 00:05:05;;;;;;;0.75;0.35;;;;;;;7.55;100.00;102213.69;5035679;28;20045;-70
2021/10/24 00:07:31;;;;;;;0.10;0.10;;;;;;;7.56;100.00;102209.94;5022496;28;20032;-69
2021/10/24 00:09:57;;;;;;;0.10;0.10;;;;;;;7.54;100.00;102209.44;5015887;28;20036;-69
2021/10/24 00:12:23;;;;;;;0.10;0.10;;;;;;;7.55;100.00;102208.31;5031141;28;20604;-69
2021/10/24 00:14:48;;;;;;;0.10;0.10;;;;;;;7.55;100.00;102202.19;5030154;28;20105;-69
2021/10/24 00:17:14;;;;;;;0.20;0.20;;;;;;;7.48;100.00;102207.13;5030225;28;20033;-69
2021/10/24 00:19:40;;;;;;;0.20;0.20;;;;;;;7.43;100.00;102210.72;5035825;28;20030;-69
2021/10/24 00:22:05;;;;;;;0.10;0.10;;;;;;;7.41;100.00;102212.88;5035979;28;20489;-69
2021/10/24 00:24:32;;;;;;;0.20;0.20;;;;;;;7.41;100.00;102204.84;5011865;28;20033;-70
2021/10/24 00:26:58;;;;;;;0.10;0.10;;;;;;;7.43;100.00;102205.34;5041787;28;20037;-70
2021/10/24 00:29:23;;;;;;;0.10;0.10;;;;;;;7.43;100.00;102201.88;5012977;28;20033;-70
2021/10/24 00:31:49;;;;;;;0.10;0.10;;;;;;;7.42;100.00;102200.25;5036912;28;20433;-69
2021/10/24 00:34:14;;;;;;;0.30;0.30;;;;;;;7.48;100.00;102199.09;5033085;28;20036;-69
2021/10/24 00:36:40;;;;;;;0.10;0.10;;;;;;;7.37;100.00;102200.38;5039608;28;20387;-69
2021/10/24 00:39:06;;;;;;;0.10;0.10;;;;;;;7.39;100.00;102207.03;5012058;28;20037;-71
2021/10/24 00:41:32;;;;;;;0.10;0.10;;;;;;;7.39;100.00;102208.91;5020892;28;20485;-69
2021/10/24 00:44:26;;;;;;;0.10;0.10;;;;;;;7.40;100.00;102205.91;5019546;28;20521;-69
2021/10/24 00:46:54;;;;;;;0.10;0.10;;;;;;;7.38;100.00;102199.25;5024280;28;20191;-71
2021/10/24 00:49:20;;;;;;;0.10;0.10;;;;;;;7.39;100.00;102208.91;5025675;28;20042;-71
2021/10/24 00:51:47;;;;;;;0.10;0.10;;;;;;;7.35;100.00;102205.22;5016303;28;20596;-71
2021/10/24 00:54:13;;;;;;;0.10;0.10;;;;;;;7.45;100.00;102202.38;5021086;28;20070;-69
2021/10/24 00:56:41;;;;;;;0.68;0.68;;;;;;;7.44;100.00;102201.56;5030649;28;20051;-69
2021/10/24 00:59:09;;;;;;;0.10;0.10;;;;;;;7.43;100.00;102196.50;5040546;28;20468;-69
2021/10/24 01:01:35;;;;;;;0.20;0.20;;;;;;;7.40;100.00;102191.72;5032502;28;20037;-69
2021/10/24 01:04:03;;;;;;;0.38;0.38;;;;;;;7.51;100.00;102187.78;5029590;28;20695;-69
2021/10/24 01:06:36;;;;;;;0.10;0.10;;;;;;;7.46;100.00;102185.19;5038061;28;20041;-69
2021/10/24 01:09:04;;;;;;;0.10;0.10;;;;;;;7.45;100.00;102181.72;5038204;28;20029;-69
2021/10/24 01:11:30;;;;;;;0.10;0.10;;;;;;;7.53;100.00;102180.25;5028154;28;20036;-69
2021/10/24 01:13:56;;;;;;;0.10;0.10;;;;;;;7.49;100.00;102173.88;5018544;28;20013;-69
2021/10/24 01:16:22;;;;;;;0.10;0.10;;;;;;;7.52;100.00;102173.28;5023906;28;20053;-69
2021/10/24 01:18:48;;;;;;;0.10;0.10;;;;;;;7.53;100.00;102174.88;5032493;28;20033;-73
2021/10/24 01:21:14;;;;;;;0.10;0.10;;;;;;;7.47;100.00;102171.47;5012639;28;20072;-69
2021/10/24 01:23:41;;;;;;;0.10;0.10;;;;;;;7.38;100.00;102165.22;5026845;28;20112;-69
2021/10/24 01:26:07;;;;;;;0.20;0.20;;;;;;;7.34;100.00;102163.44;5027017;28;20033;-69
2021/10/24 01:28:33;;;;;;;0.10;0.10;;;;;;;7.41;100.00;102171.88;5035464;28;20037;-69
2021/10/24 01:31:00;;;;;;;0.10;0.10;;;;;;;7.33;100.00;102162.66;5037906;28;20036;-69
2021/10/24 01:33:28;;;;;;;0.17;0.17;;;;;;;7.37;100.00;102165.53;5019913;28;20132;-69
2021/10/24 01:36:03;;;;;;;0.10;0.10;;;;;;;7.32;100.00;102169.88;5021345;28;20038;-69
2021/10/24 01:38:30;;;;;;;0.15;0.15;;;;;;;7.39;100.00;102155.31;5029835;28;20033;-70
2021/10/24 01:40:56;;;;;;;0.35;0.35;;;;;;;7.36;100.00;102172.75;5024591;28;20026;-71
2021/10/24 01:43:23;;;;;;;0.00;0.00;;;;;;;7.38;100.00;102175.13;5013565;28;20030;-69
2021/10/24 01:45:49;;;;;;;0.30;0.30;;;;;;;7.49;100.00;102165.84;5016818;28;20041;-69
2021/10/24 01:48:19;;;;;;;0.30;0.30;;;;;;;7.45;100.00;102171.00;5012110;28;20029;-69
2021/10/24 01:50:46;;;;;;;0.10;0.10;;;;;;;7.49;100.00;102163.94;5025584;28;20061;-69
2021/10/24 01:53:16;;;;;;;0.05;0.05;;;;;;;7.43;100.00;102165.16;5021423;28;20025;-71
2021/10/24 01:55:42;;;;;;;0.10;0.10;;;;;;;7.37;100.00;102163.66;5017342;28;20071;-69
2021/10/24 01:58:08;;;;;;;0.00;0.00;;;;;;;7.41;100.00;102166.53;5034743;28;20500;-71
2021/10/24 02:00:36;;;;;;;0.40;0.40;;;;;;;7.38;100.00;102173.25;5020845;28;20037;-69
2021/10/24 02:03:02;;;;;;;0.10;0.10;;;;;;;7.38;100.00;102169.78;5009288;28;20089;-68
2021/10/24 02:05:43;;;;;;;0.10;0.10;;;;;;;7.37;100.00;102158.28;5014423;28;20036;-69
2021/10/24 02:08:09;;;;;;;0.10;0.10;;;;;;;7.40;100.00;102159.56;5036681;28;20033;-71
2021/10/24 02:10:36;;;;;;;0.00;0.00;;;;;;;7.34;100.00;102158.09;5030602;28;20062;-70
2021/10/24 02:13:05;;;;;;;0.10;0.10;;;;;;;7.24;100.00;102170.56;5013254;28;20040;-69
2021/10/24 02:15:35;;;;;;;0.10;0.10;;;;;;;7.23;100.00;102163.63;5010924;28;20024;-69
2021/10/24 02:18:05;;;;;;;0.10;0.10;;;;;;;7.26;100.00;102171.06;5027053;28;20492;-69
2021/10/24 02:20:36;;;;;;;0.20;0.20;;;;;;;7.26;100.00;102159.53;5011293;28;20030;-69
2021/10/24 02:23:04;;;;;;;0.10;0.10;;;;;;;7.28;100.00;102171.56;5020601;28;20029;-69
2021/10/24 02:25:29;;;;;;;0.10;0.10;;;;;;;7.30;100.00;102168.59;5031377;28;20079;-69
2021/10/24 02:27:56;;;;;;;0.10;0.10;;;;;;;7.25;100.00;102150.72;5022189;28;20451;-73
2021/10/24 02:30:23;;;;;;;0.10;0.10;;;;;;;7.28;100.00;102165.41;5033221;28;20119;-69
2021/10/24 02:32:49;;;;;;;0.10;0.10;;;;;;;7.39;100.00;102163.34;5021219;28;20061;-69
2021/10/24 02:35:39;;;;;;;0.10;0.10;;;;;;;7.45;100.00;102160.28;5021267;28;20017;-69
2021/10/24 02:38:05;;;;;;;0.10;0.10;;;;;;;7.38;100.00;102156.38;5022834;28;20028;-69
2021/10/24 02:40:31;;;;;;;0.10;0.10;;;;;;;7.43;100.00;102149.06;5013105;28;20030;-71
2021/10/24 02:42:57;;;;;;;0.10;0.10;;;;;;;7.34;100.00;102158.09;5018844;28;20029;-72
2021/10/24 02:45:28;;;;;;;0.10;0.10;;;;;;;7.28;100.00;102160.84;5024658;28;20041;-69
2021/10/24 02:47:56;;;;;;;0.10;0.10;;;;;;;7.29;100.00;102154.41;5016291;28;20052;-70
2021/10/24 02:50:21;;;;;;;0.10;0.10;;;;;;;7.36;100.00;102156.69;5026987;28;20029;-69
2021/10/24 02:52:49;;;;;;;0.10;0.10;;;;;;;7.36;100.00;102156.69;5028180;28;20414;-69
2021/10/24 02:55:14;;;;;;;0.10;0.10;;;;;;;7.38;100.00;102142.97;5013682;28;20033;-69
2021/10/24 02:57:40;;;;;;;0.10;0.10;;;;;;;7.42;100.00;102152.81;5016923;28;20521;-69
2021/10/24 03:00:07;;;;;;;0.10;0.10;;;;;;;7.50;100.00;102151.34;5025710;28;20034;-69
2021/10/24 03:02:34;;;;;;;0.10;0.10;;;;;;;7.44;100.00;102149.84;5020498;28;20381;-69
2021/10/24 03:04:59;;;;;;;0.10;0.10;;;;;;;7.43;100.00;102148.28;5020473;28;20444;-69
2021/10/24 03:07:25;;;;;;;0.10;0.10;;;;;;;7.40;100.00;102143.47;5011419;28;20086;-69
2021/10/24 03:09:51;;;;;;;0.10;0.10;;;;;;;7.42;100.00;102152.81;5024217;28;20083;-72
2021/10/24 03:12:16;;;;;;;0.15;0.13;;;;;;;7.43;100.00;102153.63;5041130;28;20382;-70
2021/10/24 03:14:42;;;;;;;0.10;0.10;;;;;;;7.45;100.00;102148.78;5042295;28;20108;-70
2021/10/24 03:17:09;;;;;;;0.10;0.10;;;;;;;7.36;100.00;102148.66;5026882;28;20055;-69
2021/10/24 03:19:39;;;;;;;0.10;0.10;;;;;;;7.37;100.00;102152.94;5024775;28;20033;-73
2021/10/24 03:22:05;;;;;;;0.20;0.20;;;;;;;7.47;100.00;102157.31;5030710;28;20236;-68
2021/10/24 03:24:31;;;;;;;0.10;0.10;;;;;;;7.42;100.00;102152.03;5028110;28;20033;-69
2021/10/24 03:26:57;;;;;;;0.13;0.13;;;;;;;7.42;100.00;102147.47;5033464;28;20469;-70
2021/10/24 03:29:23;;;;;;;0.10;0.10;;;;;;;7.48;100.00;102145.47;5022532;28;20068;-70
2021/10/24 03:31:48;;;;;;;0.17;0.17;;;;;;;7.42;100.00;102149.34;5033386;28;20036;-69
2021/10/24 03:34:16;;;;;;;0.10;0.10;;;;;;;7.40;100.00;102143.47;5012723;28;20026;-69
2021/10/24 03:36:43;;;;;;;0.10;0.10;;;;;;;7.34;100.00;102142.78;5036725;28;20473;-72
2021/10/24 03:39:08;;;;;;;0.47;0.47;;;;;;;7.39;100.00;102148.06;5011536;28;20037;-69
2021/10/24 03:41:34;;;;;;;0.10;0.10;;;;;;;7.32;100.00;102148.44;5028948;28;20048;-68
2021/10/24 03:44:00;;;;;;;0.10;0.10;;;;;;;7.29;100.00;102150.94;5035319;28;20021;-69
2021/10/24 03:46:25;;;;;;;0.10;0.10;;;;;;;7.27;100.00;102143.19;5026648;28;20065;-70
2021/10/24 03:48:51;;;;;;;0.10;0.10;;;;;;;7.39;100.00;102149.94;5043592;28;20040;-69
2021/10/24 03:51:16;;;;;;;0.10;0.10;;;;;;;7.37;100.00;102147.56;5038430;28;20036;-69
2021/10/24 03:53:42;;;;;;;0.10;0.10;;;;;;;7.35;100.00;102147.06;5010761;28;20043;-70
2021/10/24 03:56:08;;;;;;;0.20;0.20;;;;;;;7.37;100.00;102152.13;5025118;28;20033;-70
2021/10/24 03:58:40;;;;;;;0.00;0.00;;;;;;;7.27;100.00;102151.22;5030696;28;20028;-68
2021/10/24 04:01:05;;;;;;;0.17;0.17;;;;;;;7.26;100.00;102157.66;5030609;28;20036;-69
2021/10/24 04:03:34;;;;;;;0.15;0.15;;;;;;;7.25;100.00;102147.25;5013985;28;20541;-69
2021/10/24 04:06:00;;;;;;;0.10;0.10;;;;;;;7.28;100.00;102150.13;5034187;28;20060;-69
2021/10/24 04:08:26;;;;;;;0.20;0.20;;;;;;;7.26;100.00;102157.66;5023076;28;20033;-68
2021/10/24 04:10:52;;;;;;;0.10;0.10;;;;;;;7.22;100.00;102148.63;5016111;28;20116;-69
2021/10/24 04:13:19;;;;;;;0.10;0.10;;;;;;;7.20;100.00;102148.13;5023832;28;20053;-69
2021/10/24 04:15:45;;;;;;;0.17;0.17;;;;;;;7.23;100.00;102147.56;5025259;28;20146;-70
2021/10/24 04:18:46;;;;;;;0.30;0.30;;;;;;;7.28;100.00;102147.44;4969107;28;20050;-72
2021/10/24 04:21:12;;;;;;;0.10;0.10;;;;;;;7.21;100.00;102147.06;4987090;28;20061;-71
2021/10/24 04:23:38;;;;;;;0.10;0.10;;;;;;;7.22;100.00;102143.28;5021227;28;20198;-69
2021/10/24 04:26:03;;;;;;;0.10;0.10;;;;;;;7.23;100.00;102150.22;5026871;28;20533;-69
2021/10/24 04:28:29;;;;;;;0.10;0.10;;;;;;;7.20;100.00;102152.72;5033900;28;20505;-69
2021/10/24 04:30:55;;;;;;;0.10;0.10;;;;;;;7.14;100.00;102138.59;5032850;28;20124;-70
2021/10/24 04:33:20;;;;;;;0.10;0.10;;;;;;;7.17;100.00;102145.25;5016665;28;20026;-69
2021/10/24 04:35:49;;;;;;;0.10;0.10;;;;;;;7.16;100.00;102133.72;5026935;28;20030;-69
2021/10/24 04:38:15;;;;;;;0.10;0.10;;;;;;;7.17;100.00;102127.31;5019359;28;20025;-69
2021/10/24 04:40:41;;;;;;;0.00;0.00;;;;;;;7.17;100.00;102132.66;4998918;28;20521;-71
2021/10/24 04:43:13;;;;;;;0.10;0.10;;;;;;;7.13;100.00;102126.28;4999630;28;20033;-69
2021/10/24 04:45:40;;;;;;;0.10;0.10;;;;;;;7.10;100.00;102131.44;5013351;28;20128;-70
2021/10/24 04:48:06;;;;;;;0.10;0.10;;;;;;;7.02;100.00;102130.25;5011708;28;20486;-69
2021/10/24 04:50:39;;;;;;;0.10;0.10;;;;;;;7.01;100.00;102128.63;5030114;28;20387;-70
2021/10/24 04:53:09;;;;;;;0.10;0.10;;;;;;;7.04;100.00;102127.28;5013379;28;20022;-70
2021/10/24 04:55:36;;;;;;;0.10;0.10;;;;;;;6.95;100.00;102126.38;5016803;28;20116;-69
2021/10/24 04:58:02;;;;;;;0.30;0.30;;;;;;;6.96;100.00;102120.72;5030446;28;20113;-70
2021/10/24 05:00:28;;;;;;;0.10;0.10;;;;;;;6.90;100.00;102121.88;5014588;28;20404;-69
2021/10/24 05:02:53;;;;;;;0.10;0.10;;;;;;;6.86;100.00;102120.88;5030016;28;20058;-69
2021/10/24 05:05:20;;;;;;;0.10;0.10;;;;;;;6.84;100.00;102117.69;5014013;28;20039;-70
2021/10/24 05:07:45;;;;;;;0.20;0.20;;;;;;;6.83;100.00;102126.78;5034100;28;20103;-69
2021/10/24 05:10:11;;;;;;;0.10;0.10;;;;;;;6.78;100.00;102121.53;5014808;22;20349;-68
2021/10/24 05:12:37;;;;;;;0.10;0.10;;;;;;;6.80;100.00;102114.00;5025391;28;20400;-68
2021/10/24 05:15:04;;;;;;;0.10;0.10;;;;;;;6.82;100.00;102124.41;5024043;28;20029;-68
2021/10/24 05:17:31;;;;;;;0.10;0.10;;;;;;;6.88;100.00;102121.38;5035583;28;20035;-68
2021/10/24 05:19:56;;;;;;;0.10;0.10;;;;;;;6.99;100.00;102125.47;5031220;28;20033;-67
2021/10/24 05:22:23;;;;;;;0.10;0.10;;;;;;;7.03;100.00;102121.09;5033968;28;20052;-68
2021/10/24 05:24:49;;;;;;;0.10;0.10;;;;;;;6.85;100.00;102124.63;5030443;28;20037;-67
2021/10/24 05:27:15;;;;;;;0.10;0.10;;;;;;;6.92;100.00;102121.56;5024955;28;20044;-67
2021/10/24 05:29:42;;;;;;;0.38;0.30;;;;;;;6.79;100.00;102125.00;5036154;28;20556;-68
2021/10/24 05:32:08;;;;;;;0.73;0.47;;;;;;;6.75;100.00;102124.81;5044624;28;20021;-67
2021/10/24 05:34:33;;;;;;;0.10;0.10;;;;;;;6.70;100.00;102118.72;5031862;28;20025;-69
2021/10/24 05:37:13;;;;;;;0.10;0.10;;;;;;;6.66;100.00;102121.19;5031363;28;20052;-68
2021/10/24 05:39:40;;;;;;;0.03;0.03;;;;;;;6.75;100.00;102124.81;5031222;28;20040;-68
2021/10/24 05:42:22;;;;;;;0.10;0.10;;;;;;;6.65;100.00;102122.28;5034340;28;20489;-68
2021/10/24 05:44:49;;;;;;;0.20;0.20;;;;;;;6.75;100.00;102114.09;5032516;28;20055;-68
2021/10/24 05:47:14;;;;;;;0.10;0.10;;;;;;;6.74;100.00;102123.22;5019914;28;20029;-68
2021/10/24 05:49:40;;;;;;;0.45;0.40;;;;;;;6.75;100.00;102118.66;5033336;28;20040;-68
2021/10/24 05:52:17;;;;;;;0.10;0.10;;;;;;;6.69;100.00;102120.63;5026513;28;20100;-69
2021/10/24 05:54:43;;;;;;;0.10;0.10;;;;;;;6.55;100.00;102116.28;5031999;28;20036;-69
2021/10/24 05:57:09;;;;;;;0.10;0.10;;;;;;;6.59;100.00;102112.75;5037875;28;20033;-69
2021/10/24 06:00:14;;;;;;;0.10;0.10;;;;;;;6.62;100.00;102114.81;5047685;28;20124;-69
2021/10/24 06:02:50;;;;;;;0.10;0.10;;;;;;;6.59;100.00;102110.06;5016860;28;20096;-69
2021/10/24 06:05:36;;;;;;;0.10;0.10;;;;;;;6.58;100.00;102110.38;5040037;28;20064;-69
2021/10/24 06:08:03;;;;;;;0.10;0.10;;;;;;;6.58;100.00;102116.50;5028245;28;20029;-68
2021/10/24 06:10:39;;;;;;;0.10;0.10;;;;;;;6.58;100.00;102118.41;5028747;28;20079;-69
2021/10/24 06:13:07;;;;;;;0.00;0.00;;;;;;;6.71;100.00;102118.44;5053093;28;20037;-68
2021/10/24 06:15:33;;;;;;;0.10;0.10;;;;;;;6.61;100.00;102107.09;5032295;28;20044;-70
2021/10/24 06:17:59;;;;;;;0.10;0.10;;;;;;;6.59;100.00;102111.94;5054116;28;20041;-69
2021/10/24 06:20:25;;;;;;;0.30;0.30;;;;;;;6.57;100.00;102104.22;5033127;28;20525;-68
2021/10/24 06:22:53;;;;;;;0.10;0.10;;;;;;;6.57;100.00;102111.44;5036789;28;20491;-69
2021/10/24 06:25:19;;;;;;;0.10;0.10;;;;;;;6.60;100.00;102108.19;5048325;28;20111;-68
2021/10/24 06:27:48;;;;;;;0.10;0.10;;;;;;;6.60;100.00;102117.00;5037033;28;20033;-69
2021/10/24 06:30:17;;;;;;;0.00;0.00;;;;;;;6.58;100.00;102105.00;5036908;28;20051;-69
2021/10/24 06:33:12;;;;;;;0.10;0.10;;;;;;;6.68;100.00;102113.66;5034078;28;20029;-69
2021/10/24 06:35:56;;;;;;;0.13;0.13;;;;;;;6.67;100.00;102103.25;5040550;28;20048;-70
2021/10/24 06:38:41;;;;;;;0.10;0.10;;;;;;;6.61;100.00;102115.94;5051747;28;20094;-69
2021/10/24 06:41:22;;;;;;;0.10;0.10;;;;;;;6.58;100.00;102103.13;5043702;28;20059;-69
2021/10/24 06:44:04;;;;;;;0.10;0.10;;;;;;;6.59;100.00;102099.38;5030905;28;20029;-69
2021/10/24 06:47:02;;;;;;;0.10;0.10;;;;;;;6.70;100.00;102116.84;5010612;28;20041;-69
2021/10/24 06:50:00;;;;;;;0.10;0.10;;;;;;;6.62;100.00;102112.16;5032295;28;20101;-69
2021/10/24 06:52:46;;;;;;;0.10;0.10;;;;;;;6.62;100.00;102106.81;5008752;28;20074;-69
2021/10/24 06:55:30;;;;;;;0.10;0.10;;;;;;;6.60;100.00;102103.63;5048578;28;20068;-69
2021/10/24 06:58:21;;;;;;;0.15;0.15;;;;;;;6.69;100.00;102104.56;5001249;28;20045;-70
2021/10/24 07:01:02;;;;;;;0.10;0.10;;;;;;;6.73;100.00;102104.75;5054376;28;20115;-68
2021/10/24 07:03:47;;;;;;;0.13;0.13;;;;;;;6.67;100.00;102100.59;5055831;28;20043;-69
2021/10/24 07:06:31;;;;;;;0.10;0.10;;;;;;;6.72;100.00;102112.00;5049560;28;20040;-68
2021/10/24 07:09:15;;;;;;;0.10;0.10;;;;;;;6.69;100.00;102104.56;5047515;28;20047;-68
2021/10/24 07:11:41;;;;;;;0.10;0.10;;;;;;;6.82;100.00;102111.03;5035413;28;20028;-69
2021/10/24 07:14:06;;;;;;;0.10;0.10;;;;;;;6.81;100.00;102107.59;5040839;28;20496;-68
2021/10/24 07:16:32;;;;;;;0.00;0.00;;;;;;;6.85;100.00;102103.19;5028904;28;20021;-69
2021/10/24 07:18:58;;;;;;;0.10;0.10;;;;;;;6.83;100.00;102113.41;5036356;28;20020;-69
2021/10/24 07:21:23;;;;;;;0.10;0.10;;;;;;;6.90;100.00;102111.16;5038223;28;20111;-68
2021/10/24 07:23:50;;;;;;;0.15;0.15;;;;;;;7.05;100.00;102112.78;5049822;28;20040;-68
2021/10/24 07:26:21;;;;;;;0.00;0.00;;;;;;;7.07;100.00;102111.41;5031413;28;20041;-69
2021/10/24 07:28:49;;;;;;;0.10;0.10;;;;;;;7.14;100.00;102119.84;5030646;28;20516;-67
2021/10/24 07:31:20;;;;;;;0.10;0.10;;;;;;;7.19;100.00;102124.31;5028830;28;20026;-68
2021/10/24 07:33:58;;;;;;;0.20;0.20;;;;;;;7.17;100.00;102118.47;5029925;28;20147;-67
2021/10/24 07:36:32;;;;;;;0.00;0.00;;;;;;;7.35;100.00;102127.50;5028015;28;20029;-67
2021/10/24 07:38:58;;;;;;;0.10;0.10;;;;;;;7.36;100.00;102126.41;5026324;28;20124;-67
2021/10/24 07:41:24;;;;;;;0.10;0.10;;;;;;;7.43;100.00;102116.13;5032494;28;20467;-67
2021/10/24 07:43:49;;;;;;;0.03;0.03;;;;;;;7.46;100.00;102123.53;5040515;28;20033;-68
2021/10/24 07:46:15;;;;;;;0.10;0.10;;;;;;;7.57;100.00;102116.91;5037531;28;20025;-68
2021/10/24 07:48:41;;;;;;;0.10;0.10;;;;;;;7.61;100.00;102115.19;5013484;28;20413;-67
2021/10/24 07:51:08;;;;;;;0.10;0.10;;;;;;;7.75;100.00;102121.38;5023447;28;20406;-67
2021/10/24 07:53:34;;;;;;;0.10;0.10;;;;;;;7.81;100.00;102115.59;5025649;28;20037;-67
2021/10/24 07:56:06;;;;;;;0.10;0.10;;;;;;;7.91;100.00;102114.59;5029108;28;20144;-67
2021/10/24 07:59:00;;;;;;;0.10;0.10;;;;;;;7.89;100.00;102104.19;5007182;28;20045;-68
2021/10/24 08:01:26;;;;;;;0.10;0.10;;;;;;;8.06;100.00;102112.38;5022214;28;20095;-68
2021/10/24 08:03:54;;;;;;;0.10;0.10;;;;;;;8.17;99.71;102103.00;5024681;28;20123;-68
2021/10/24 08:06:31;;;;;;;0.10;0.10;;;;;;;8.24;99.67;102110.66;5022192;28;20098;-67
2021/10/24 08:08:58;;;;;;;0.73;0.68;;;;;;;8.22;99.13;102104.81;5026512;28;20025;-68
2021/10/24 08:11:24;;;;;;;0.43;0.43;;;;;;;8.32;99.94;102101.94;5027574;28;20039;-68
2021/10/24 08:13:50;;;;;;;0.10;0.10;;;;;;;8.35;99.23;102104.00;5038133;28;20029;-67
2021/10/24 08:16:15;;;;;;;0.10;0.10;;;;;;;8.48;98.55;102097.00;5028553;28;20033;-68
2021/10/24 08:18:41;;;;;;;0.20;0.20;;;;;;;8.58;97.08;102094.84;5022722;28;20052;-68
2021/10/24 08:21:31;;;;;;;0.10;0.10;;;;;;;8.59;96.85;102098.34;5023023;28;20059;-68
2021/10/24 08:23:58;;;;;;;0.10;0.10;;;;;;;8.59;96.63;102090.28;5025919;28;20035;-68
2021/10/24 08:26:25;;;;;;;0.32;0.32;;;;;;;8.74;95.93;102089.91;5030664;28;20033;-68
2021/10/24 08:28:51;;;;;;;0.40;0.40;;;;;;;8.76;94.71;102095.75;5030067;28;20076;-67
2021/10/24 08:31:36;;;;;;;0.10;0.10;;;;;;;8.80;96.00;102084.09;5037928;28;20075;-67
2021/10/24 08:34:02;;;;;;;0.10;0.10;;;;;;;8.92;94.21;102080.84;5025525;28;20021;-67
2021/10/24 08:36:28;;;;;;;1.10;0.38;;;;;;;8.95;93.53;102070.28;5038922;28;20112;-67
2021/10/24 08:38:55;;;;;;;0.10;0.10;;;;;;;8.99;93.31;102073.13;5021939;28;20037;-67
2021/10/24 08:41:28;;;;;;;0.10;0.10;;;;;;;9.08;93.62;102068.59;5053531;28;20123;-67
2021/10/24 08:43:55;;;;;;;0.10;0.10;;;;;;;9.18;91.16;102062.16;5032063;28;20052;-66
2021/10/24 08:46:22;;;;;;;0.20;0.20;;;;;;;9.16;90.79;102065.16;5030535;28;20036;-67
2021/10/24 08:48:48;;;;;;;0.10;0.10;;;;;;;9.21;91.53;102069.59;5044044;28;20025;-68
2021/10/24 08:51:17;;;;;;;0.40;0.40;;;;;;;9.29;91.15;102068.84;5043834;28;20032;-67
2021/10/24 08:53:44;;;;;;;0.10;0.10;;;;;;;9.34;90.67;102060.63;5050629;28;20035;-67
2021/10/24 08:56:17;;;;;;;1.13;0.85;;;;;;;9.36;90.62;102064.59;5052144;28;20029;-67
2021/10/24 08:58:44;;;;;;;0.10;0.10;;;;;;;9.35;91.33;102056.84;5049959;28;20462;-67
2021/10/24 09:01:11;;;;;;;0.10;0.10;;;;;;;9.43;90.69;102069.50;5046060;28;20109;-67
2021/10/24 09:03:37;;;;;;;0.10;0.10;;;;;;;9.54;89.59;102057.38;5049231;28;20463;-67
2021/10/24 09:06:05;;;;;;;0.20;0.20;;;;;;;9.53;89.17;102059.28;5051591;28;20381;-66
2021/10/24 09:08:31;;;;;;;0.10;0.10;;;;;;;9.55;89.42;102051.69;5052503;28;20045;-70
2021/10/24 09:10:59;;;;;;;0.10;0.10;;;;;;;9.53;89.30;102055.78;5048851;28;20499;-67
2021/10/24 09:13:30;;;;;;;0.63;0.63;;;;;;;9.49;89.29;102052.94;5036337;28;20042;-67
2021/10/24 09:16:06;;;;;;;0.10;0.10;;;;;;;9.61;88.96;102049.63;5029551;28;20461;-67
2021/10/24 09:18:45;;;;;;;0.00;0.00;;;;;;;9.55;89.37;102051.69;5039513;28;20029;-66
2021/10/24 09:21:18;;;;;;;0.30;0.30;;;;;;;9.68;89.81;102048.06;5043445;28;20032;-67
2021/10/24 09:23:47;;;;;;;0.10;0.10;;;;;;;9.76;89.69;102046.50;5038265;28;20033;-66
2021/10/24 09:26:40;;;;;;;0.20;0.20;;;;;;;9.81;89.57;102044.44;5044427;28;20033;-69
2021/10/24 09:29:13;;;;;;;0.03;0.03;;;;;;;9.98;88.75;102041.78;5032849;28;20049;-66
2021/10/24 09:32:00;;;;;;;0.03;0.03;;;;;;;10.08;88.30;102048.75;5040776;28;20052;-66
2021/10/24 09:34:26;;;;;;;0.17;0.17;;;;;;;10.18;87.42;102045.00;5040107;28;20396;-66
2021/10/24 09:37:17;;;;;;;0.10;0.10;;;;;;;10.30;86.91;102037.84;5045491;28;20405;-67
2021/10/24 09:40:13;;;;;;;0.10;0.10;;;;;;;10.42;86.84;102037.19;4982669;28;20496;-67
2021/10/24 09:42:38;;;;;;;0.45;0.45;;;;;;;10.53;87.43;102036.53;5037662;28;20040;-68
2021/10/24 09:45:13;;;;;;;0.10;0.10;;;;;;;10.67;85.80;102039.84;5040932;28;20036;-68
2021/10/24 09:47:43;;;;;;;0.00;0.00;;;;;;;10.68;86.75;102030.63;5015024;28;20031;-67
2021/10/24 09:50:28;;;;;;;0.10;0.10;;;;;;;10.73;85.08;102029.69;5040304;28;20046;-67
2021/10/24 09:53:07;;;;;;;0.05;0.05;;;;;;;10.79;84.67;102041.88;5029519;28;20060;-67
2021/10/24 09:55:33;;;;;;;0.00;0.00;;;;;;;10.82;83.55;102038.53;5044736;28;20036;-68
2021/10/24 09:58:03;;;;;;;0.20;0.20;;;;;;;10.88;84.29;102021.88;5023981;28;20486;-67
2021/10/24 10:00:29;;;;;;;0.10;0.10;;;;;;;11.06;84.37;102019.91;5021496;28;20086;-67
2021/10/24 10:02:55;;;;;;;0.00;0.00;;;;;;;11.23;83.36;102029.81;5024121;28;20036;-67
2021/10/24 10:05:22;;;;;;;0.10;0.10;;;;;;;11.27;83.50;102028.84;5030666;28;20041;-68
2021/10/24 10:07:48;;;;;;;0.10;0.10;;;;;;;11.36;83.01;102020.72;5046622;28;20135;-68
2021/10/24 10:10:14;;;;;;;0.00;0.00;;;;;;;11.35;82.95;102019.91;5043933;28;20064;-67
2021/10/24 10:12:44;;;;;;;0.03;0.03;;;;;;;11.46;82.31;102025.72;5022171;28;20061;-67
2021/10/24 10:15:11;;;;;;;0.20;0.20;;;;;;;11.54;81.51;102024.88;5047723;28;20037;-68
2021/10/24 10:17:37;;;;;;;0.10;0.10;;;;;;;11.61;81.78;102019.75;5051105;28;20590;-68
2021/10/24 10:20:27;;;;;;;0.10;0.10;;;;;;;11.66;80.76;102017.69;5046925;28;20120;-68
2021/10/24 10:23:04;;;;;;;0.03;0.03;;;;;;;11.72;79.51;102018.28;5021365;28;20037;-69
2021/10/24 10:25:32;;;;;;;0.10;0.10;;;;;;;11.71;80.23;102011.31;5040540;28;20107;-67
2021/10/24 10:27:58;;;;;;;0.03;0.03;;;;;;;11.76;79.73;102024.59;5046082;28;20029;-68
2021/10/24 10:30:49;;;;;;;0.52;0.52;;;;;;;11.78;79.75;102016.97;5043133;28;20128;-67
2021/10/24 10:33:55;;;;;;;0.10;0.10;;;;;;;11.82;79.54;102012.50;5030314;28;20061;-68
2021/10/24 10:36:20;;;;;;;0.10;0.10;;;;;;;11.79;79.13;102005.84;5039067;28;20454;-67
2021/10/24 10:38:46;;;;;;;0.00;0.00;;;;;;;11.88;80.37;101996.88;5038907;28;20100;-67
2021/10/24 10:41:14;;;;;;;0.00;0.00;;;;;;;12.02;80.25;101992.78;5048432;28;20035;-67
2021/10/24 10:44:06;;;;;;;0.00;0.00;;;;;;;12.15;79.11;101999.84;5050572;28;20041;-67
2021/10/24 10:46:32;;;;;;;0.30;0.30;;;;;;;12.26;78.93;101992.09;5040903;28;20120;-67
2021/10/24 10:49:26;;;;;;;1.27;0.28;;;;;;;12.33;78.01;102000.47;5042502;28;20123;-67
2021/10/24 10:51:55;;;;;;;0.08;0.08;;;;;;;12.30;77.54;101987.59;5049613;28;20037;-67
2021/10/24 10:54:21;;;;;;;0.50;0.50;;;;;;;12.28;76.38;101985.25;5029180;28;20064;-67
2021/10/24 10:56:55;;;;;;;0.03;0.03;;;;;;;12.37;75.27;101983.25;5038680;28;20130;-67
2021/10/24 10:59:28;;;;;;;0.00;0.00;;;;;;;12.36;76.06;101984.38;5029809;28;20037;-67
2021/10/24 11:01:54;;;;;;;0.00;0.00;;;;;;;12.39;77.14;101972.88;5037888;28;20116;-67
2021/10/24 11:04:21;;;;;;;0.00;0.00;;;;;;;12.48;76.27;101978.22;5035142;28;20588;-67
2021/10/24 11:06:48;;;;;;;0.10;0.10;;;;;;;12.50;76.45;101970.56;5046981;28;20548;-67
2021/10/24 11:09:40;;;;;;;0.10;0.10;;;;;;;12.53;76.36;101972.59;5030627;28;20033;-67
2021/10/24 11:12:39;;;;;;;0.00;0.00;;;;;;;12.61;74.74;101969.00;5054107;22;20564;-68
2021/10/24 11:15:09;;;;;;;0.10;0.10;;;;;;;12.63;75.01;101955.94;5064371;28;20084;-68
2021/10/24 11:17:48;;;;;;;0.65;0.52;;;;;;;12.67;74.14;101963.06;5068237;28;20559;-68
2021/10/24 11:20:24;;;;;;;0.00;0.00;;;;;;;12.63;73.53;101956.75;5046893;28;20037;-68
2021/10/24 11:23:02;;;;;;;0.57;0.20;;;;;;;12.72;74.29;101955.84;5072401;28;20518;-68
2021/10/24 11:25:39;;;;;;;0.20;0.20;;;;;;;12.76;73.08;101951.31;5063855;28;20036;-69
2021/10/24 11:28:12;;;;;;;0.05;0.05;;;;;;;12.73;73.57;101950.09;5043275;28;20059;-69
2021/10/24 11:30:39;;;;;;;0.10;0.10;;;;;;;12.84;73.86;101945.81;5057301;28;20492;-68
2021/10/24 11:33:06;;;;;;;0.00;0.00;;;;;;;12.82;73.72;101947.28;5066857;28;20412;-66
2021/10/24 11:35:35;;;;;;;0.08;0.08;;;;;;;12.87;73.78;101931.63;5060719;28;20043;-70
2021/10/24 11:38:05;;;;;;;3.83;0.10;;;;;;;12.93;73.71;101943.00;5060471;28;20087;-70
2021/10/24 11:40:45;;;;;;;0.10;0.10;;;;;;;12.99;73.47;101937.03;5068027;28;20058;-68